sensor_id;sensor_type;location;lat;lon;timestamp;P1;durP1;ratioP1;P2;durP2;ratioP2
20679;SDS011;10499;47.494;7.608;2022-10-16T00:01:47;0.10;;;0.10;;
20679;SDS011;10499;47.494;7.608;2022-10-16T00:04:13;0.10;;;0.10;;
20679;SDS011;10499;47.494;7.608;2022-10-16T00:06:39;0.20;;;0.20;;
20679;SDS011;10499;47.494;7.608;2022-10-16T00:09:05;0.20;;;0.20;;
20679;SDS011;10499;47.494;7.608;2022-10-16T00:11:33;0.20;;;0.20;;
20679;SDS011;10499;47.494;7.608;2022-10-16T00:14:02;0.10;;;0.10;;
20679;SDS011;10499;47.494;7.608;2022-10-16T00:16:30;0.20;;;0.20;;
20679;SDS011;10499;47.494;7.608;2022-10-16T00:18:56;0.20;;;0.20;;
20679;SDS011;10499;47.494;7.608;2022-10-16T00:21:23;0.10;;;0.10;;
20679;SDS011;10499;47.494;7.608;2022-10-16T00:23:55;0.20;;;0.20;;
20679;SDS011;10499;47.494;7.608;2022-10-16T00:26:24;0.10;;;0.10;;
20679;SDS011;10499;47.494;7.608;2022-10-16T00:28:51;0.20;;;0.20;;
20679;SDS011;10499;47.494;7.608;2022-10-16T00:31:18;0.20;;;0.20;;
20679;SDS011;10499;47.494;7.608;2022-10-16T00:33:45;0.20;;;0.20;;
20679;SDS011;10499;47.494;7.608;2022-10-16T00:36:12;0.20;;;0.20;;
20679;SDS011;10499;47.494;7.608;2022-10-16T00:38:40;0.13;;;0.13;;
20679;SDS011;10499;47.494;7.608;2022-10-16T00:41:07;0.10;;;0.10;;
20679;SDS011;10499;47.494;7.608;2022-10-16T00:46:13;0.20;;;0.20;;
20679;SDS011;10499;47.494;7.608;2022-10-16T00:48:56;0.10;;;0.10;;
20679;SDS011;10499;47.494;7.608;2022-10-16T00:51:28;0.20;;;0.20;;
20679;SDS011;10499;47.494;7.608;2022-10-16T00:54:00;0.20;;;0.20;;
20679;SDS011;10499;47.494;7.608;2022-10-16T00:56:29;0.20;;;0.20;;
20679;SDS011;10499;47.494;7.608;2022-10-16T00:58:54;0.10;;;0.10;;
20679;SDS011;10499;47.494;7.608;2022-10-16T01:01:20;0.20;;;0.20;;
20679;SDS011;10499;47.494;7.608;2022-10-16T01:03:46;0.20;;;0.20;;
20679;SDS011;10499;47.494;7.608;2022-10-16T01:06:28;0.20;;;0.20;;
20679;SDS011;10499;47.494;7.608;2022-10-16T01:11:59;0.20;;;0.20;;
20679;SDS011;10499;47.494;7.608;2022-10-16T01:14:42;0.10;;;0.10;;
20679;SDS011;10499;47.494;7.608;2022-10-16T01:17:17;0.20;;;0.20;;
20679;SDS011;10499;47.494;7.608;2022-10-16T01:20:07;0.20;;;0.20;;
20679;SDS011;10499;47.494;7.608;2022-10-16T01:25:37;0.10;;;0.10;;
20679;SDS011;10499;47.494;7.608;2022-10-16T01:28:25;0.20;;;0.20;;
20679;SDS011;10499;47.494;7.608;2022-10-16T01:30:55;0.20;;;0.20;;
20679;SDS011;10499;47.494;7.608;2022-10-16T01:33:25;0.20;;;0.20;;
20679;SDS011;10499;47.494;7.608;2022-10-16T01:35:56;0.20;;;0.20;;
20679;SDS011;10499;47.494;7.608;2022-10-16T01:38:35;0.20;;;0.20;;
20679;SDS011;10499;47.494;7.608;2022-10-16T01:41:25;0.10;;;0.10;;
20679;SDS011;10499;47.494;7.608;2022-10-16T01:44:07;0.10;;;0.10;;
20679;SDS011;10499;47.494;7.608;2022-10-16T01:46:37;0.20;;;0.20;;
20679;SDS011;10499;47.494;7.608;2022-10-16T01:49:05;0.20;;;0.20;;
20679;SDS011;10499;47.494;7.608;2022-10-16T01:51:33;0.20;;;0.20;;
20679;SDS011;10499;47.494;7.608;2022-10-16T01:54:01;0.13;;;0.13;;
20679;SDS011;10499;47.494;7.608;2022-10-16T01:56:28;0.10;;;0.10;;
20679;SDS011;10499;47.494;7.608;2022-10-16T01:59:13;0.20;;;0.20;;
20679;SDS011;10499;47.494;7.608;2022-10-16T02:01:44;0.20;;;0.20;;
20679;SDS011;10499;47.494;7.608;2022-10-16T02:04:15;0.20;;;0.20;;
20679;SDS011;10499;47.494;7.608;2022-10-16T02:06:46;0.20;;;0.20;;
20679;SDS011;10499;47.494;7.608;2022-10-16T02:09:12;0.10;;;0.10;;
20679;SDS011;10499;47.494;7.608;2022-10-16T02:11:40;0.20;;;0.20;;
20679;SDS011;10499;47.494;7.608;2022-10-16T02:14:06;0.20;;;0.20;;
20679;SDS011;10499;47.494;7.608;2022-10-16T02:16:43;0.20;;;0.20;;
20679;SDS011;10499;47.494;7.608;2022-10-16T02:19:10;0.20;;;0.20;;
20679;SDS011;10499;47.494;7.608;2022-10-16T02:26:44;0.20;;;0.20;;
20679;SDS011;10499;47.494;7.608;2022-10-16T02:29:36;0.10;;;0.10;;
20679;SDS011;10499;47.494;7.608;2022-10-16T02:32:09;0.20;;;0.20;;
20679;SDS011;10499;47.494;7.608;2022-10-16T02:34:37;0.10;;;0.10;;
20679;SDS011;10499;47.494;7.608;2022-10-16T02:37:05;0.20;;;0.20;;
20679;SDS011;10499;47.494;7.608;2022-10-16T02:39:31;0.10;;;0.10;;
20679;SDS011;10499;47.494;7.608;2022-10-16T02:41:58;0.20;;;0.20;;
20679;SDS011;10499;47.494;7.608;2022-10-16T02:44:24;0.10;;;0.10;;
20679;SDS011;10499;47.494;7.608;2022-10-16T02:46:49;0.10;;;0.10;;
20679;SDS011;10499;47.494;7.608;2022-10-16T02:49:15;0.13;;;0.13;;
20679;SDS011;10499;47.494;7.608;2022-10-16T02:51:41;0.20;;;0.20;;
20679;SDS011;10499;47.494;7.608;2022-10-16T02:54:06;0.20;;;0.20;;
20679;SDS011;10499;47.494;7.608;2022-10-16T02:56:33;0.15;;;0.15;;
20679;SDS011;10499;47.494;7.608;2022-10-16T02:58:58;0.10;;;0.10;;
20679;SDS011;10499;47.494;7.608;2022-10-16T03:01:24;0.17;;;0.17;;
20679;SDS011;10499;47.494;7.608;2022-10-16T03:03:49;0.10;;;0.10;;
20679;SDS011;10499;47.494;7.608;2022-10-16T03:06:15;0.20;;;0.20;;
20679;SDS011;10499;47.494;7.608;2022-10-16T03:08:41;0.20;;;0.20;;
20679;SDS011;10499;47.494;7.608;2022-10-16T03:11:07;0.10;;;0.10;;
20679;SDS011;10499;47.494;7.608;2022-10-16T03:13:32;0.20;;;0.20;;
20679;SDS011;10499;47.494;7.608;2022-10-16T03:15:58;0.20;;;0.20;;
20679;SDS011;10499;47.494;7.608;2022-10-16T03:18:24;0.20;;;0.20;;
20679;SDS011;10499;47.494;7.608;2022-10-16T03:20:49;0.20;;;0.20;;
20679;SDS011;10499;47.494;7.608;2022-10-16T03:23:15;0.20;;;0.20;;
20679;SDS011;10499;47.494;7.608;2022-10-16T03:25:41;0.15;;;0.15;;
20679;SDS011;10499;47.494;7.608;2022-10-16T03:28:06;0.10;;;0.10;;
20679;SDS011;10499;47.494;7.608;2022-10-16T03:30:32;0.10;;;0.10;;
20679;SDS011;10499;47.494;7.608;2022-10-16T03:32:58;0.20;;;0.20;;
20679;SDS011;10499;47.494;7.608;2022-10-16T03:35:23;0.20;;;0.20;;
20679;SDS011;10499;47.494;7.608;2022-10-16T03:37:49;0.20;;;0.20;;
20679;SDS011;10499;47.494;7.608;2022-10-16T03:40:16;0.20;;;0.20;;
20679;SDS011;10499;47.494;7.608;2022-10-16T03:42:42;0.20;;;0.20;;
20679;SDS011;10499;47.494;7.608;2022-10-16T03:45:08;0.20;;;0.20;;
20679;SDS011;10499;47.494;7.608;2022-10-16T03:47:34;0.20;;;0.20;;
20679;SDS011;10499;47.494;7.608;2022-10-16T03:50:00;0.20;;;0.20;;
20679;SDS011;10499;47.494;7.608;2022-10-16T03:52:26;0.20;;;0.20;;
20679;SDS011;10499;47.494;7.608;2022-10-16T03:54:51;0.20;;;0.20;;
20679;SDS011;10499;47.494;7.608;2022-10-16T03:57:17;0.20;;;0.20;;
20679;SDS011;10499;47.494;7.608;2022-10-16T03:59:43;0.20;;;0.20;;
20679;SDS011;10499;47.494;7.608;2022-10-16T04:02:09;0.20;;;0.20;;
20679;SDS011;10499;47.494;7.608;2022-10-16T04:04:34;0.20;;;0.20;;
20679;SDS011;10499;47.494;7.608;2022-10-16T04:07:00;0.20;;;0.20;;
20679;SDS011;10499;47.494;7.608;2022-10-16T04:09:26;0.20;;;0.20;;
20679;SDS011;10499;47.494;7.608;2022-10-16T04:11:52;0.20;;;0.20;;
20679;SDS011;10499;47.494;7.608;2022-10-16T04:14:17;0.20;;;0.20;;
20679;SDS011;10499;47.494;7.608;2022-10-16T04:16:43;0.20;;;0.20;;
20679;SDS011;10499;47.494;7.608;2022-10-16T04:19:09;0.20;;;0.20;;
20679;SDS011;10499;47.494;7.608;2022-10-16T04:21:36;0.10;;;0.10;;
20679;SDS011;10499;47.494;7.608;2022-10-16T04:24:02;0.20;;;0.20;;
20679;SDS011;10499;47.494;7.608;2022-10-16T04:26:28;0.20;;;0.20;;
20679;SDS011;10499;47.494;7.608;2022-10-16T04:28:54;0.20;;;0.20;;
20679;SDS011;10499;47.494;7.608;2022-10-16T04:31:21;0.20;;;0.20;;
20679;SDS011;10499;47.494;7.608;2022-10-16T04:33:47;0.20;;;0.20;;
20679;SDS011;10499;47.494;7.608;2022-10-16T04:36:13;0.15;;;0.15;;
20679;SDS011;10499;47.494;7.608;2022-10-16T04:38:39;0.20;;;0.20;;
20679;SDS011;10499;47.494;7.608;2022-10-16T04:41:05;0.20;;;0.20;;
20679;SDS011;10499;47.494;7.608;2022-10-16T04:43:31;0.20;;;0.20;;
20679;SDS011;10499;47.494;7.608;2022-10-16T04:45:57;0.20;;;0.20;;
20679;SDS011;10499;47.494;7.608;2022-10-16T04:48:23;0.20;;;0.20;;
20679;SDS011;10499;47.494;7.608;2022-10-16T04:50:48;0.20;;;0.20;;
20679;SDS011;10499;47.494;7.608;2022-10-16T04:53:14;0.20;;;0.20;;
20679;SDS011;10499;47.494;7.608;2022-10-16T04:55:40;0.20;;;0.20;;
20679;SDS011;10499;47.494;7.608;2022-10-16T04:58:06;0.20;;;0.20;;
20679;SDS011;10499;47.494;7.608;2022-10-16T05:00:32;0.20;;;0.20;;
20679;SDS011;10499;47.494;7.608;2022-10-16T05:02:58;0.20;;;0.20;;
20679;SDS011;10499;47.494;7.608;2022-10-16T05:05:25;0.20;;;0.20;;
20679;SDS011;10499;47.494;7.608;2022-10-16T05:07:52;0.20;;;0.20;;
20679;SDS011;10499;47.494;7.608;2022-10-16T05:10:18;0.20;;;0.20;;
20679;SDS011;10499;47.494;7.608;2022-10-16T05:12:44;0.20;;;0.20;;
20679;SDS011;10499;47.494;7.608;2022-10-16T05:15:10;0.20;;;0.20;;
20679;SDS011;10499;47.494;7.608;2022-10-16T05:17:35;0.20;;;0.20;;
20679;SDS011;10499;47.494;7.608;2022-10-16T05:20:01;0.20;;;0.20;;
20679;SDS011;10499;47.494;7.608;2022-10-16T05:22:28;0.20;;;0.20;;
20679;SDS011;10499;47.494;7.608;2022-10-16T05:24:54;0.20;;;0.20;;
20679;SDS011;10499;47.494;7.608;2022-10-16T05:27:19;0.20;;;0.20;;
20679;SDS011;10499;47.494;7.608;2022-10-16T05:29:46;0.20;;;0.20;;
20679;SDS011;10499;47.494;7.608;2022-10-16T05:32:12;0.20;;;0.20;;
20679;SDS011;10499;47.494;7.608;2022-10-16T05:34:39;0.10;;;0.10;;
20679;SDS011;10499;47.494;7.608;2022-10-16T05:37:04;0.20;;;0.20;;
20679;SDS011;10499;47.494;7.608;2022-10-16T05:39:30;0.20;;;0.20;;
20679;SDS011;10499;47.494;7.608;2022-10-16T05:41:56;0.20;;;0.20;;
20679;SDS011;10499;47.494;7.608;2022-10-16T05:44:21;0.20;;;0.20;;
20679;SDS011;10499;47.494;7.608;2022-10-16T05:46:47;0.20;;;0.20;;
20679;SDS011;10499;47.494;7.608;2022-10-16T05:49:13;0.20;;;0.20;;
20679;SDS011;10499;47.494;7.608;2022-10-16T05:51:39;0.20;;;0.20;;
20679;SDS011;10499;47.494;7.608;2022-10-16T05:54:04;0.20;;;0.20;;
20679;SDS011;10499;47.494;7.608;2022-10-16T05:56:30;0.20;;;0.20;;
20679;SDS011;10499;47.494;7.608;2022-10-16T05:58:56;0.20;;;0.20;;
20679;SDS011;10499;47.494;7.608;2022-10-16T06:01:21;0.20;;;0.20;;
20679;SDS011;10499;47.494;7.608;2022-10-16T06:03:49;0.20;;;0.20;;
20679;SDS011;10499;47.494;7.608;2022-10-16T06:06:19;0.20;;;0.20;;
20679;SDS011;10499;47.494;7.608;2022-10-16T06:08:47;0.20;;;0.20;;
20679;SDS011;10499;47.494;7.608;2022-10-16T06:11:15;0.20;;;0.20;;
20679;SDS011;10499;47.494;7.608;2022-10-16T06:13:42;0.20;;;0.20;;
20679;SDS011;10499;47.494;7.608;2022-10-16T06:16:10;0.20;;;0.20;;
20679;SDS011;10499;47.494;7.608;2022-10-16T06:18:37;0.20;;;0.20;;
20679;SDS011;10499;47.494;7.608;2022-10-16T06:21:07;0.20;;;0.20;;
20679;SDS011;10499;47.494;7.608;2022-10-16T06:23:34;0.20;;;0.20;;
20679;SDS011;10499;47.494;7.608;2022-10-16T06:26:04;0.20;;;0.20;;
20679;SDS011;10499;47.494;7.608;2022-10-16T06:28:33;0.20;;;0.20;;
20679;SDS011;10499;47.494;7.608;2022-10-16T06:30:59;0.20;;;0.20;;
20679;SDS011;10499;47.494;7.608;2022-10-16T06:33:26;0.20;;;0.20;;
20679;SDS011;10499;47.494;7.608;2022-10-16T06:35:52;0.20;;;0.20;;
20679;SDS011;10499;47.494;7.608;2022-10-16T06:38:17;0.20;;;0.20;;
20679;SDS011;10499;47.494;7.608;2022-10-16T06:40:43;0.20;;;0.20;;
20679;SDS011;10499;47.494;7.608;2022-10-16T06:43:08;0.13;;;0.13;;
20679;SDS011;10499;47.494;7.608;2022-10-16T06:45:35;0.20;;;0.20;;
20679;SDS011;10499;47.494;7.608;2022-10-16T06:48:01;0.20;;;0.20;;
20679;SDS011;10499;47.494;7.608;2022-10-16T06:50:26;0.10;;;0.10;;
20679;SDS011;10499;47.494;7.608;2022-10-16T06:52:52;0.20;;;0.20;;
20679;SDS011;10499;47.494;7.608;2022-10-16T06:55:18;0.20;;;0.20;;
20679;SDS011;10499;47.494;7.608;2022-10-16T06:57:43;0.20;;;0.20;;
20679;SDS011;10499;47.494;7.608;2022-10-16T07:00:11;0.10;;;0.10;;
20679;SDS011;10499;47.494;7.608;2022-10-16T07:02:37;0.15;;;0.15;;
20679;SDS011;10499;47.494;7.608;2022-10-16T07:05:03;0.20;;;0.20;;
20679;SDS011;10499;47.494;7.608;2022-10-16T07:07:29;0.10;;;0.10;;
20679;SDS011;10499;47.494;7.608;2022-10-16T07:09:54;0.10;;;0.10;;
20679;SDS011;10499;47.494;7.608;2022-10-16T07:12:20;0.10;;;0.10;;
20679;SDS011;10499;47.494;7.608;2022-10-16T07:14:45;0.10;;;0.10;;
20679;SDS011;10499;47.494;7.608;2022-10-16T07:27:29;0.10;;;0.10;;
20679;SDS011;10499;47.494;7.608;2022-10-16T07:29:54;0.10;;;0.10;;
20679;SDS011;10499;47.494;7.608;2022-10-16T07:32:20;0.10;;;0.10;;
20679;SDS011;10499;47.494;7.608;2022-10-16T07:34:46;0.10;;;0.10;;
20679;SDS011;10499;47.494;7.608;2022-10-16T07:37:12;0.10;;;0.10;;
20679;SDS011;10499;47.494;7.608;2022-10-16T07:39:37;0.10;;;0.10;;
20679;SDS011;10499;47.494;7.608;2022-10-16T07:42:03;0.10;;;0.10;;
20679;SDS011;10499;47.494;7.608;2022-10-16T07:44:29;0.10;;;0.10;;
20679;SDS011;10499;47.494;7.608;2022-10-16T07:46:54;0.10;;;0.10;;
20679;SDS011;10499;47.494;7.608;2022-10-16T07:49:20;0.05;;;0.05;;
20679;SDS011;10499;47.494;7.608;2022-10-16T07:51:46;0.10;;;0.10;;
20679;SDS011;10499;47.494;7.608;2022-10-16T07:54:11;0.00;;;0.00;;
20679;SDS011;10499;47.494;7.608;2022-10-16T07:56:37;0.00;;;0.00;;
20679;SDS011;10499;47.494;7.608;2022-10-16T07:59:02;0.00;;;0.00;;
20679;SDS011;10499;47.494;7.608;2022-10-16T08:01:28;0.00;;;0.00;;
20679;SDS011;10499;47.494;7.608;2022-10-16T08:03:54;0.00;;;0.00;;
20679;SDS011;10499;47.494;7.608;2022-10-16T08:06:21;0.00;;;0.00;;
20679;SDS011;10499;47.494;7.608;2022-10-16T08:08:47;0.00;;;0.00;;
20679;SDS011;10499;47.494;7.608;2022-10-16T08:11:13;0.00;;;0.00;;
20679;SDS011;10499;47.494;7.608;2022-10-16T08:13:41;0.00;;;0.00;;
20679;SDS011;10499;47.494;7.608;2022-10-16T08:16:06;0.00;;;0.00;;
20679;SDS011;10499;47.494;7.608;2022-10-16T08:18:39;0.00;;;0.00;;
20679;SDS011;10499;47.494;7.608;2022-10-16T08:21:06;0.00;;;0.00;;
20679;SDS011;10499;47.494;7.608;2022-10-16T08:23:37;0.00;;;0.00;;
20679;SDS011;10499;47.494;7.608;2022-10-16T08:26:04;0.00;;;0.00;;
20679;SDS011;10499;47.494;7.608;2022-10-16T08:28:31;0.03;;;0.03;;
20679;SDS011;10499;47.494;7.608;2022-10-16T08:31:07;0.00;;;0.00;;
20679;SDS011;10499;47.494;7.608;2022-10-16T08:33:38;0.00;;;0.00;;
20679;SDS011;10499;47.494;7.608;2022-10-16T08:36:06;0.10;;;0.10;;
20679;SDS011;10499;47.494;7.608;2022-10-16T08:38:32;0.08;;;0.08;;
20679;SDS011;10499;47.494;7.608;2022-10-16T08:41:10;0.00;;;0.00;;
20679;SDS011;10499;47.494;7.608;2022-10-16T08:49:38;0.00;;;0.00;;
20679;SDS011;10499;47.494;7.608;2022-10-16T08:52:10;0.00;;;0.00;;
20679;SDS011;10499;47.494;7.608;2022-10-16T08:54:41;0.10;;;0.10;;
20679;SDS011;10499;47.494;7.608;2022-10-16T08:57:20;0.00;;;0.00;;
20679;SDS011;10499;47.494;7.608;2022-10-16T08:59:52;0.00;;;0.00;;
20679;SDS011;10499;47.494;7.608;2022-10-16T09:02:36;0.10;;;0.10;;
20679;SDS011;10499;47.494;7.608;2022-10-16T09:05:29;0.05;;;0.05;;
20679;SDS011;10499;47.494;7.608;2022-10-16T09:21:46;0.00;;;0.00;;
20679;SDS011;10499;47.494;7.608;2022-10-16T09:24:20;0.10;;;0.10;;
20679;SDS011;10499;47.494;7.608;2022-10-16T09:26:49;0.00;;;0.00;;
20679;SDS011;10499;47.494;7.608;2022-10-16T09:29:19;0.08;;;0.08;;
20679;SDS011;10499;47.494;7.608;2022-10-16T09:32:11;0.10;;;0.10;;
20679;SDS011;10499;47.494;7.608;2022-10-16T09:34:42;0.00;;;0.00;;
20679;SDS011;10499;47.494;7.608;2022-10-16T09:37:14;0.10;;;0.10;;
20679;SDS011;10499;47.494;7.608;2022-10-16T09:39:53;0.00;;;0.00;;
20679;SDS011;10499;47.494;7.608;2022-10-16T09:42:20;0.00;;;0.00;;
20679;SDS011;10499;47.494;7.608;2022-10-16T09:44:52;0.00;;;0.00;;
20679;SDS011;10499;47.494;7.608;2022-10-16T09:49:55;0.00;;;0.00;;
20679;SDS011;10499;47.494;7.608;2022-10-16T09:52:24;0.10;;;0.10;;
20679;SDS011;10499;47.494;7.608;2022-10-16T09:54:58;0.10;;;0.10;;
20679;SDS011;10499;47.494;7.608;2022-10-16T09:57:25;0.10;;;0.10;;
20679;SDS011;10499;47.494;7.608;2022-10-16T09:59:52;0.10;;;0.10;;
20679;SDS011;10499;47.494;7.608;2022-10-16T10:02:23;0.00;;;0.00;;
20679;SDS011;10499;47.494;7.608;2022-10-16T10:05:05;0.10;;;0.10;;
20679;SDS011;10499;47.494;7.608;2022-10-16T10:07:53;0.10;;;0.10;;
20679;SDS011;10499;47.494;7.608;2022-10-16T10:10:30;0.10;;;0.10;;
20679;SDS011;10499;47.494;7.608;2022-10-16T10:13:00;0.10;;;0.10;;
20679;SDS011;10499;47.494;7.608;2022-10-16T10:15:27;0.10;;;0.10;;
20679;SDS011;10499;47.494;7.608;2022-10-16T10:17:58;0.08;;;0.08;;
20679;SDS011;10499;47.494;7.608;2022-10-16T10:22:49;0.10;;;0.10;;
20679;SDS011;10499;47.494;7.608;2022-10-16T10:25:38;0.10;;;0.10;;
20679;SDS011;10499;47.494;7.608;2022-10-16T10:50:23;0.10;;;0.10;;
20679;SDS011;10499;47.494;7.608;2022-10-16T10:59:08;0.10;;;0.10;;
20679;SDS011;10499;47.494;7.608;2022-10-16T11:01:49;0.10;;;0.10;;
20679;SDS011;10499;47.494;7.608;2022-10-16T11:04:34;0.10;;;0.10;;
20679;SDS011;10499;47.494;7.608;2022-10-16T11:07:05;0.10;;;0.10;;
20679;SDS011;10499;47.494;7.608;2022-10-16T11:09:38;0.10;;;0.10;;
20679;SDS011;10499;47.494;7.608;2022-10-16T11:15:00;0.10;;;0.10;;
20679;SDS011;10499;47.494;7.608;2022-10-16T11:20:54;0.10;;;0.10;;
20679;SDS011;10499;47.494;7.608;2022-10-16T11:23:27;0.10;;;0.10;;
20679;SDS011;10499;47.494;7.608;2022-10-16T11:25:58;0.10;;;0.10;;
20679;SDS011;10499;47.494;7.608;2022-10-16T11:28:34;0.10;;;0.10;;
20679;SDS011;10499;47.494;7.608;2022-10-16T11:42:05;0.10;;;0.10;;
20679;SDS011;10499;47.494;7.608;2022-10-16T11:50:06;0.10;;;0.10;;
20679;SDS011;10499;47.494;7.608;2022-10-16T11:53:13;0.10;;;0.10;;
20679;SDS011;10499;47.494;7.608;2022-10-16T11:55:57;0.10;;;0.10;;
20679;SDS011;10499;47.494;7.608;2022-10-16T12:03:39;0.05;;;0.05;;
20679;SDS011;10499;47.494;7.608;2022-10-16T12:08:44;0.10;;;0.10;;
20679;SDS011;10499;47.494;7.608;2022-10-16T12:14:06;0.10;;;0.10;;
20679;SDS011;10499;47.494;7.608;2022-10-16T12:19:19;0.10;;;0.10;;
20679;SDS011;10499;47.494;7.608;2022-10-16T12:21:45;0.10;;;0.10;;
20679;SDS011;10499;47.494;7.608;2022-10-16T12:24:22;0.10;;;0.10;;
20679;SDS011;10499;47.494;7.608;2022-10-16T12:27:00;0.10;;;0.10;;
20679;SDS011;10499;47.494;7.608;2022-10-16T12:32:23;0.10;;;0.10;;
20679;SDS011;10499;47.494;7.608;2022-10-16T12:34:56;0.10;;;0.10;;
20679;SDS011;10499;47.494;7.608;2022-10-16T12:37:24;0.10;;;0.10;;
20679;SDS011;10499;47.494;7.608;2022-10-16T12:40:13;0.10;;;0.10;;
20679;SDS011;10499;47.494;7.608;2022-10-16T12:42:53;0.10;;;0.10;;
20679;SDS011;10499;47.494;7.608;2022-10-16T12:45:28;0.10;;;0.10;;
20679;SDS011;10499;47.494;7.608;2022-10-16T12:47:56;0.10;;;0.10;;
20679;SDS011;10499;47.494;7.608;2022-10-16T12:50:30;0.10;;;0.10;;
20679;SDS011;10499;47.494;7.608;2022-10-16T12:53:02;0.10;;;0.10;;
20679;SDS011;10499;47.494;7.608;2022-10-16T12:55:32;0.10;;;0.10;;
20679;SDS011;10499;47.494;7.608;2022-10-16T13:00:57;0.10;;;0.10;;
20679;SDS011;10499;47.494;7.608;2022-10-16T13:08:55;0.00;;;0.00;;
20679;SDS011;10499;47.494;7.608;2022-10-16T13:20:15;0.10;;;0.10;;
20679;SDS011;10499;47.494;7.608;2022-10-16T13:28:07;0.00;;;0.00;;
20679;SDS011;10499;47.494;7.608;2022-10-16T13:30:45;0.00;;;0.00;;
20679;SDS011;10499;47.494;7.608;2022-10-16T13:33:24;0.00;;;0.00;;
20679;SDS011;10499;47.494;7.608;2022-10-16T13:35:56;0.00;;;0.00;;
20679;SDS011;10499;47.494;7.608;2022-10-16T13:38:24;0.00;;;0.00;;
20679;SDS011;10499;47.494;7.608;2022-10-16T13:40:58;0.00;;;0.00;;
20679;SDS011;10499;47.494;7.608;2022-10-16T13:46:18;0.00;;;0.00;;
20679;SDS011;10499;47.494;7.608;2022-10-16T13:48:45;0.00;;;0.00;;
20679;SDS011;10499;47.494;7.608;2022-10-16T13:51:40;0.00;;;0.00;;
20679;SDS011;10499;47.494;7.608;2022-10-16T13:54:08;0.00;;;0.00;;
20679;SDS011;10499;47.494;7.608;2022-10-16T13:56:36;0.00;;;0.00;;
20679;SDS011;10499;47.494;7.608;2022-10-16T13:59:06;0.00;;;0.00;;
20679;SDS011;10499;47.494;7.608;2022-10-16T14:01:47;0.00;;;0.00;;
20679;SDS011;10499;47.494;7.608;2022-10-16T14:04:14;0.00;;;0.00;;
20679;SDS011;10499;47.494;7.608;2022-10-16T14:06:41;0.00;;;0.00;;
20679;SDS011;10499;47.494;7.608;2022-10-16T14:09:23;0.00;;;0.00;;
20679;SDS011;10499;47.494;7.608;2022-10-16T14:11:53;0.00;;;0.00;;
20679;SDS011;10499;47.494;7.608;2022-10-16T14:14:24;0.00;;;0.00;;
20679;SDS011;10499;47.494;7.608;2022-10-16T14:16:51;0.00;;;0.00;;
20679;SDS011;10499;47.494;7.608;2022-10-16T14:19:19;0.00;;;0.00;;
20679;SDS011;10499;47.494;7.608;2022-10-16T14:21:53;0.03;;;0.03;;
20679;SDS011;10499;47.494;7.608;2022-10-16T14:24:26;0.00;;;0.00;;
20679;SDS011;10499;47.494;7.608;2022-10-16T14:26:57;0.00;;;0.00;;
20679;SDS011;10499;47.494;7.608;2022-10-16T14:29:24;0.00;;;0.00;;
20679;SDS011;10499;47.494;7.608;2022-10-16T14:31:55;0.00;;;0.00;;
20679;SDS011;10499;47.494;7.608;2022-10-16T14:34:31;0.00;;;0.00;;
20679;SDS011;10499;47.494;7.608;2022-10-16T14:37:06;0.00;;;0.00;;
20679;SDS011;10499;47.494;7.608;2022-10-16T14:39:51;0.00;;;0.00;;
20679;SDS011;10499;47.494;7.608;2022-10-16T14:42:19;0.00;;;0.00;;
20679;SDS011;10499;47.494;7.608;2022-10-16T14:44:49;0.00;;;0.00;;
20679;SDS011;10499;47.494;7.608;2022-10-16T14:47:19;0.00;;;0.00;;
20679;SDS011;10499;47.494;7.608;2022-10-16T14:49:51;0.00;;;0.00;;
20679;SDS011;10499;47.494;7.608;2022-10-16T14:52:20;0.00;;;0.00;;
20679;SDS011;10499;47.494;7.608;2022-10-16T14:54:49;0.00;;;0.00;;
20679;SDS011;10499;47.494;7.608;2022-10-16T14:57:16;0.00;;;0.00;;
20679;SDS011;10499;47.494;7.608;2022-10-16T14:59:48;0.00;;;0.00;;
20679;SDS011;10499;47.494;7.608;2022-10-16T15:07:53;0.00;;;0.00;;
20679;SDS011;10499;47.494;7.608;2022-10-16T15:10:20;0.00;;;0.00;;
20679;SDS011;10499;47.494;7.608;2022-10-16T15:13:09;0.00;;;0.00;;
20679;SDS011;10499;47.494;7.608;2022-10-16T15:15:44;0.00;;;0.00;;
20679;SDS011;10499;47.494;7.608;2022-10-16T15:18:25;0.00;;;0.00;;
20679;SDS011;10499;47.494;7.608;2022-10-16T15:20:50;0.00;;;0.00;;
20679;SDS011;10499;47.494;7.608;2022-10-16T15:23:17;0.00;;;0.00;;
20679;SDS011;10499;47.494;7.608;2022-10-16T15:25:46;0.00;;;0.00;;
20679;SDS011;10499;47.494;7.608;2022-10-16T15:28:14;0.00;;;0.00;;
20679;SDS011;10499;47.494;7.608;2022-10-16T15:30:41;0.00;;;0.00;;
20679;SDS011;10499;47.494;7.608;2022-10-16T15:33:14;0.00;;;0.00;;
20679;SDS011;10499;47.494;7.608;2022-10-16T15:35:42;0.00;;;0.00;;
20679;SDS011;10499;47.494;7.608;2022-10-16T15:38:12;0.00;;;0.00;;
20679;SDS011;10499;47.494;7.608;2022-10-16T15:40:38;0.00;;;0.00;;
20679;SDS011;10499;47.494;7.608;2022-10-16T15:43:05;0.00;;;0.00;;
20679;SDS011;10499;47.494;7.608;2022-10-16T15:45:32;0.00;;;0.00;;
20679;SDS011;10499;47.494;7.608;2022-10-16T15:47:58;0.00;;;0.00;;
20679;SDS011;10499;47.494;7.608;2022-10-16T15:50:24;0.00;;;0.00;;
20679;SDS011;10499;47.494;7.608;2022-10-16T15:52:50;0.00;;;0.00;;
20679;SDS011;10499;47.494;7.608;2022-10-16T15:55:16;0.00;;;0.00;;
20679;SDS011;10499;47.494;7.608;2022-10-16T15:57:44;0.00;;;0.00;;
20679;SDS011;10499;47.494;7.608;2022-10-16T16:00:12;0.00;;;0.00;;
20679;SDS011;10499;47.494;7.608;2022-10-16T16:02:42;0.00;;;0.00;;
20679;SDS011;10499;47.494;7.608;2022-10-16T16:05:09;0.00;;;0.00;;
20679;SDS011;10499;47.494;7.608;2022-10-16T16:07:36;0.00;;;0.00;;
20679;SDS011;10499;47.494;7.608;2022-10-16T16:10:04;0.00;;;0.00;;
20679;SDS011;10499;47.494;7.608;2022-10-16T16:12:30;0.00;;;0.00;;
20679;SDS011;10499;47.494;7.608;2022-10-16T16:14:56;0.00;;;0.00;;
20679;SDS011;10499;47.494;7.608;2022-10-16T16:17:22;0.00;;;0.00;;
20679;SDS011;10499;47.494;7.608;2022-10-16T16:19:49;0.05;;;0.05;;
20679;SDS011;10499;47.494;7.608;2022-10-16T16:22:15;0.03;;;0.03;;
20679;SDS011;10499;47.494;7.608;2022-10-16T16:24:40;0.00;;;0.00;;
20679;SDS011;10499;47.494;7.608;2022-10-16T16:27:06;0.00;;;0.00;;
20679;SDS011;10499;47.494;7.608;2022-10-16T16:29:32;0.00;;;0.00;;
20679;SDS011;10499;47.494;7.608;2022-10-16T16:32:01;0.00;;;0.00;;
20679;SDS011;10499;47.494;7.608;2022-10-16T16:34:27;0.10;;;0.10;;
20679;SDS011;10499;47.494;7.608;2022-10-16T16:36:54;0.10;;;0.10;;
20679;SDS011;10499;47.494;7.608;2022-10-16T16:39:20;0.08;;;0.08;;
20679;SDS011;10499;47.494;7.608;2022-10-16T16:41:47;0.10;;;0.10;;
20679;SDS011;10499;47.494;7.608;2022-10-16T16:44:13;0.00;;;0.00;;
20679;SDS011;10499;47.494;7.608;2022-10-16T16:46:39;0.00;;;0.00;;
20679;SDS011;10499;47.494;7.608;2022-10-16T16:49:09;0.05;;;0.05;;
20679;SDS011;10499;47.494;7.608;2022-10-16T16:51:36;0.00;;;0.00;;
20679;SDS011;10499;47.494;7.608;2022-10-16T16:54:02;0.00;;;0.00;;
20679;SDS011;10499;47.494;7.608;2022-10-16T16:56:28;0.00;;;0.00;;
20679;SDS011;10499;47.494;7.608;2022-10-16T16:58:54;0.10;;;0.10;;
20679;SDS011;10499;47.494;7.608;2022-10-16T17:01:22;0.10;;;0.10;;
20679;SDS011;10499;47.494;7.608;2022-10-16T17:03:50;0.10;;;0.10;;
20679;SDS011;10499;47.494;7.608;2022-10-16T17:06:18;0.10;;;0.10;;
20679;SDS011;10499;47.494;7.608;2022-10-16T17:08:45;0.10;;;0.10;;
20679;SDS011;10499;47.494;7.608;2022-10-16T17:11:14;0.10;;;0.10;;
20679;SDS011;10499;47.494;7.608;2022-10-16T17:13:42;0.10;;;0.10;;
20679;SDS011;10499;47.494;7.608;2022-10-16T17:16:08;0.10;;;0.10;;
20679;SDS011;10499;47.494;7.608;2022-10-16T17:18:34;0.10;;;0.10;;
20679;SDS011;10499;47.494;7.608;2022-10-16T17:21:00;0.10;;;0.10;;
20679;SDS011;10499;47.494;7.608;2022-10-16T17:23:28;0.10;;;0.10;;
20679;SDS011;10499;47.494;7.608;2022-10-16T17:25:54;0.10;;;0.10;;
20679;SDS011;10499;47.494;7.608;2022-10-16T17:28:20;0.10;;;0.10;;